Time;durP1;ratioP1;P1;durP2;ratioP2;P2;SDS_P1;SDS_P2;PMS_P1;PMS_P2;Temp;Humidity;BMP_temperature;BMP_pressure;BME280_temperature;BME280_humidity;BME280_pressure;Samples;Min_cycle;Max_cycle;Signal;HPM_P1;HPM_P2
2022/11/26 00:02:22;;;;;;;37.90;11.07;;;;;;;6.73;100.00;102127.22;5093647;28;20043;-67
2022/11/26 00:04:50;;;;;;;38.05;10.35;;;;;;;6.63;100.00;102131.41;5087313;28;20036;-67
2022/11/26 00:07:21;;;;;;;37.35;11.95;;;;;;;6.58;100.00;102131.66;5072774;28;20072;-67
2022/11/26 00:09:48;;;;;;;40.37;10.70;;;;;;;6.57;100.00;102137.91;5072493;28;20044;-67
2022/11/26 00:12:18;;;;;;;36.45;10.95;;;;;;;6.58;100.00;102138.75;5072966;28;20314;-67
2022/11/26 00:14:46;;;;;;;40.83;10.55;;;;;;;6.47;100.00;102140.22;5077693;28;20036;-67
2022/11/26 00:17:14;;;;;;;34.53;10.15;;;;;;;6.44;100.00;102150.97;5092807;28;20101;-67
2022/11/26 00:19:41;;;;;;;32.00;10.32;;;;;;;6.57;100.00;102158.13;5093071;28;20409;-67
2022/11/26 00:22:22;;;;;;;34.83;10.48;;;;;;;6.46;100.00;102149.09;5093317;28;20039;-67
2022/11/26 00:24:49;;;;;;;31.90;11.38;;;;;;;6.44;100.00;102150.09;5088077;28;20079;-66
2022/11/26 00:27:17;;;;;;;43.42;11.73;;;;;;;6.39;100.00;102160.09;5073016;28;20437;-67
2022/11/26 00:29:44;;;;;;;35.70;10.43;;;;;;;6.38;100.00;102158.41;5073139;28;20044;-67
2022/11/26 00:32:15;;;;;;;44.92;11.20;;;;;;;6.35;100.00;102164.72;5073239;28;20052;-67
2022/11/26 00:34:42;;;;;;;33.80;10.80;;;;;;;6.37;100.00;102164.59;5073924;28;20044;-67
2022/11/26 00:37:18;;;;;;;44.00;10.25;;;;;;;6.28;100.00;102161.59;5072824;28;20049;-67
2022/11/26 00:39:46;;;;;;;29.45;9.95;;;;;;;6.30;100.00;102169.41;5085989;28;20069;-67
2022/11/26 00:42:13;;;;;;;33.47;10.00;;;;;;;6.25;100.00;102171.47;5082812;28;20045;-67
2022/11/26 00:44:40;;;;;;;34.83;10.18;;;;;;;6.28;99.92;102177.41;5077929;28;20048;-67
2022/11/26 00:47:08;;;;;;;31.58;10.07;;;;;;;6.19;99.49;102179.75;5076873;28;20186;-68
2022/11/26 00:49:35;;;;;;;37.35;9.45;;;;;;;6.24;100.00;102180.28;5079900;28;20069;-67
2022/11/26 00:52:02;;;;;;;40.28;9.77;;;;;;;6.26;100.00;102181.91;5097067;28;20048;-67
2022/11/26 00:54:29;;;;;;;31.40;10.40;;;;;;;6.32;99.87;102188.59;5094898;28;20119;-67
2022/11/26 00:56:56;;;;;;;33.28;9.20;;;;;;;6.34;100.00;102195.47;5076937;28;20048;-67
2022/11/26 00:59:23;;;;;;;29.33;9.27;;;;;;;6.34;100.00;102203.38;5076543;28;20037;-67
2022/11/26 01:01:50;;;;;;;35.03;10.13;;;;;;;6.37;100.00;102202.38;5076867;28;20044;-67
2022/11/26 01:04:16;;;;;;;34.47;9.73;;;;;;;6.47;100.00;102207.94;5076346;28;20040;-67
2022/11/26 01:06:44;;;;;;;37.30;9.82;;;;;;;6.44;100.00;102203.69;5075994;28;20044;-67
2022/11/26 01:09:20;;;;;;;28.27;9.07;;;;;;;6.50;99.87;102208.59;5076238;28;20060;-66
2022/11/26 01:11:47;;;;;;;28.33;9.75;;;;;;;6.50;100.00;102208.59;5076471;28;20044;-67
2022/11/26 01:14:18;;;;;;;31.33;8.90;;;;;;;6.43;100.00;102215.16;5076681;28;20044;-67
2022/11/26 01:16:46;;;;;;;36.55;9.93;;;;;;;6.46;100.00;102219.44;5075921;28;20055;-67
2022/11/26 01:19:14;;;;;;;35.15;9.10;;;;;;;6.50;100.00;102215.66;5076269;28;20041;-68
2022/11/26 01:21:41;;;;;;;34.63;9.05;;;;;;;6.56;100.00;102214.44;5087712;28;20402;-67
2022/11/26 01:24:08;;;;;;;28.75;9.20;;;;;;;6.59;100.00;102220.38;5096529;28;20048;-67
2022/11/26 01:26:38;;;;;;;32.72;9.63;;;;;;;6.64;100.00;102220.09;5077248;28;20413;-67
2022/11/26 01:29:06;;;;;;;28.88;9.35;;;;;;;6.67;100.00;102225.19;5080652;28;20047;-67
2022/11/26 01:31:33;;;;;;;39.10;9.77;;;;;;;6.68;100.00;102217.19;5095600;28;20047;-67
2022/11/26 01:33:59;;;;;;;37.78;9.55;;;;;;;6.71;100.00;102224.94;5096291;28;20052;-68
2022/11/26 01:36:31;;;;;;;31.48;9.57;;;;;;;6.78;100.00;102230.66;5095250;28;20054;-67
2022/11/26 01:39:01;;;;;;;;;;;;;;;6.80;100.00;102230.56;5101341;28;20545;-67
2022/11/26 01:41:53;;;;;;;35.35;9.55;;;;;;;6.76;100.00;102224.63;5096378;28;19920;-67
2022/11/26 01:44:22;;;;;;;35.55;8.95;;;;;;;6.75;100.00;102224.72;5094707;28;20051;-67
2022/11/26 01:46:51;;;;;;;30.08;8.93;;;;;;;6.69;100.00;102221.53;5095440;28;20052;-67
2022/11/26 01:49:21;;;;;;;31.98;9.07;;;;;;;6.68;100.00;102227.75;5095727;28;20040;-67
2022/11/26 01:51:55;;;;;;;31.10;8.80;;;;;;;6.69;99.94;102232.09;5094513;28;20040;-67
2022/11/26 01:54:22;;;;;;;33.63;9.65;;;;;;;6.66;99.62;102229.63;5095217;28;20056;-68
2022/11/26 01:56:53;;;;;;;39.35;9.98;;;;;;;6.62;98.72;102236.03;5075611;28;20101;-67
2022/11/26 01:59:27;;;;;;;33.50;9.00;;;;;;;6.50;99.42;102234.13;5075625;28;20067;-67
2022/11/26 02:01:57;;;;;;;31.65;9.15;;;;;;;6.46;98.84;102237.88;5091777;28;20051;-67
2022/11/26 02:04:27;;;;;;;29.90;9.93;;;;;;;6.40;98.55;102228.53;5094885;28;20051;-67
2022/11/26 02:06:55;;;;;;;29.05;8.77;;;;;;;6.33;99.08;102228.06;5078688;28;20043;-67
2022/11/26 02:09:23;;;;;;;34.88;9.25;;;;;;;6.25;99.05;102226.81;5094215;28;20101;-67
2022/11/26 02:11:50;;;;;;;39.08;9.68;;;;;;;6.21;99.15;102222.66;5094864;28;20078;-67
2022/11/26 02:14:24;;;;;;;27.65;9.93;;;;;;;6.20;98.83;102223.59;5095533;28;20051;-67
2022/11/26 02:17:17;;;;;;;37.08;10.15;;;;;;;6.18;98.86;102217.56;5074018;28;20051;-67
2022/11/26 02:20:13;;;;;;;31.77;9.63;;;;;;;6.13;98.63;102217.81;5075446;28;20552;-67
2022/11/26 02:23:19;;;;;;;32.90;8.90;;;;;;;6.12;98.45;102221.41;5082164;28;20510;-67
2022/11/26 02:26:25;;;;;;;36.83;9.43;;;;;;;6.04;99.13;102226.25;5075566;28;20048;-67
2022/11/26 02:32:07;;;;;;;36.28;9.50;;;;;;;5.97;99.62;102228.41;5091784;27;20393;-67
2022/11/26 02:34:51;;;;;;;29.17;8.57;;;;;;;5.94;100.00;102236.44;5090477;28;20508;-67
2022/11/26 02:37:26;;;;;;;31.52;8.30;;;;;;;5.94;100.00;102224.09;5089722;28;20051;-67
2022/11/26 02:39:55;;;;;;;33.47;10.15;;;;;;;5.90;100.00;102225.22;5090722;28;20671;-67
2022/11/26 02:42:27;;;;;;;33.40;9.27;;;;;;;5.80;100.00;102225.84;5090136;28;20101;-67
2022/11/26 02:44:56;;;;;;;32.50;9.43;;;;;;;5.81;99.63;102220.50;5089864;28;20413;-67
2022/11/26 02:47:25;;;;;;;36.03;10.38;;;;;;;5.78;100.00;102218.00;5090662;28;20048;-67
2022/11/26 02:49:56;;;;;;;41.15;9.57;;;;;;;5.80;100.00;102220.56;5090194;28;20131;-67
2022/11/26 02:52:23;;;;;;;31.45;9.25;;;;;;;5.76;100.00;102215.47;5089107;28;20048;-67
2022/11/26 02:54:51;;;;;;;37.20;10.95;;;;;;;5.75;100.00;102213.78;5090604;28;20051;-67
2022/11/26 02:57:22;;;;;;;31.45;9.80;;;;;;;5.74;100.00;102217.34;5090675;28;20048;-67
2022/11/26 02:59:49;;;;;;;46.95;9.77;;;;;;;5.79;100.00;102224.16;5090213;28;20044;-67
2022/11/26 03:02:41;;;;;;;29.10;9.15;;;;;;;5.75;100.00;102221.69;5089795;28;20482;-67
2022/11/26 03:05:09;;;;;;;37.25;9.98;;;;;;;5.80;100.00;102217.94;5088239;28;20048;-67
2022/11/26 03:07:36;;;;;;;37.15;10.15;;;;;;;5.80;100.00;102217.94;5088618;28;20045;-67
2022/11/26 03:10:03;;;;;;;31.42;9.55;;;;;;;5.81;100.00;102219.66;5089228;28;20040;-67
2022/11/26 03:12:30;;;;;;;34.53;10.05;;;;;;;5.79;100.00;102225.00;5090161;28;20055;-67
2022/11/26 03:14:57;;;;;;;31.23;10.10;;;;;;;5.83;100.00;102220.41;5090062;28;20474;-67
2022/11/26 03:17:23;;;;;;;30.60;9.65;;;;;;;5.84;100.00;102229.97;5089656;28;20052;-67
2022/11/26 03:19:50;;;;;;;32.67;10.18;;;;;;;5.86;100.00;102242.16;5090317;28;20044;-67
2022/11/26 03:22:17;;;;;;;34.20;9.73;;;;;;;5.81;100.00;102235.44;5089687;28;20209;-66
2022/11/26 03:24:44;;;;;;;41.05;9.88;;;;;;;5.84;100.00;102243.16;5090427;28;20123;-67
2022/11/26 03:27:10;;;;;;;37.95;10.02;;;;;;;5.81;100.00;102248.63;5089626;28;20044;-67
2022/11/26 03:29:37;;;;;;;34.97;9.30;;;;;;;5.78;100.00;102252.25;5089895;28;20056;-66
2022/11/26 03:32:04;;;;;;;33.90;10.05;;;;;;;5.77;100.00;102255.84;5088931;28;20040;-67
2022/11/26 03:34:31;;;;;;;32.55;9.95;;;;;;;5.79;100.00;102259.22;5088772;28;20090;-67
2022/11/26 03:36:58;;;;;;;39.22;10.05;;;;;;;5.72;100.00;102263.13;5088588;28;20046;-67
2022/11/26 03:39:25;;;;;;;30.88;8.95;;;;;;;5.70;100.00;102263.22;5089757;28;20049;-67
2022/11/26 03:41:52;;;;;;;30.65;9.57;;;;;;;5.63;100.00;102267.13;5082557;28;20036;-67
2022/11/26 03:44:18;;;;;;;42.47;9.68;;;;;;;5.63;100.00;102266.28;5075918;28;20040;-67
2022/11/26 03:46:45;;;;;;;31.08;9.32;;;;;;;5.65;100.00;102273.16;5076148;28;20044;-67
2022/11/26 03:49:11;;;;;;;31.80;9.48;;;;;;;5.62;100.00;102270.72;5076050;28;20044;-67
2022/11/26 03:51:38;;;;;;;31.90;9.55;;;;;;;5.57;100.00;102280.63;5074850;28;20044;-67
2022/11/26 03:54:05;;;;;;;33.45;9.23;;;;;;;5.67;100.00;102294.13;5075144;28;20586;-66
2022/11/26 03:56:31;;;;;;;35.30;9.20;;;;;;;5.63;100.00;102298.72;5075439;28;20074;-67
2022/11/26 03:58:58;;;;;;;34.55;9.77;;;;;;;5.63;100.00;102295.25;5076036;28;20049;-67
2022/11/26 04:01:25;;;;;;;31.70;9.30;;;;;;;5.62;100.00;102294.41;5074342;28;20043;-67
2022/11/26 04:03:51;;;;;;;28.50;8.68;;;;;;;5.57;100.00;102299.91;5075771;28;20044;-67
2022/11/26 04:06:19;;;;;;;30.88;9.48;;;;;;;5.59;100.00;102294.56;5073155;28;20101;-67
2022/11/26 04:08:45;;;;;;;31.30;8.93;;;;;;;5.56;100.00;102298.19;5075548;28;20102;-67
2022/11/26 04:11:12;;;;;;;37.83;9.27;;;;;;;5.55;100.00;102306.19;5075020;28;20040;-66
2022/11/26 04:13:39;;;;;;;34.22;9.68;;;;;;;5.54;100.00;102310.59;5074045;28;20056;-67
2022/11/26 04:16:06;;;;;;;29.08;8.98;;;;;;;5.55;100.00;102312.31;5075484;28;20037;-67
2022/11/26 04:18:32;;;;;;;37.83;10.00;;;;;;;5.55;100.00;102319.38;5074888;28;20052;-67
2022/11/26 04:20:59;;;;;;;34.38;9.55;;;;;;;5.51;100.00;102317.81;5075303;28;20033;-67
2022/11/26 04:23:26;;;;;;;36.22;10.48;;;;;;;5.49;100.00;102322.31;5075287;28;20604;-67
2022/11/26 04:25:53;;;;;;;30.08;9.85;;;;;;;5.48;100.00;102325.88;5074852;28;20053;-67
2022/11/26 04:28:19;;;;;;;35.15;9.55;;;;;;;5.47;100.00;102332.06;5075438;28;20448;-67
2022/11/26 04:30:47;;;;;;;36.50;10.15;;;;;;;5.51;100.00;102333.59;5073884;28;20049;-67
2022/11/26 04:33:14;;;;;;;39.83;10.55;;;;;;;5.49;100.00;102343.38;5075036;28;20040;-68
2022/11/26 04:35:41;;;;;;;29.65;10.25;;;;;;;5.50;100.00;102342.44;5075120;28;20064;-67
2022/11/26 04:38:08;;;;;;;30.13;10.23;;;;;;;5.52;100.00;102344.06;5075171;28;20383;-67
2022/11/26 04:40:35;;;;;;;35.58;9.82;;;;;;;5.51;100.00;102352.91;5074274;28;20045;-67
2022/11/26 04:43:02;;;;;;;32.00;9.80;;;;;;;5.50;100.00;102342.44;5073871;28;20076;-68
2022/11/26 04:45:29;;;;;;;34.67;10.80;;;;;;;5.51;100.00;102352.03;5074319;28;20032;-67
2022/11/26 04:47:56;;;;;;;29.95;10.82;;;;;;;5.49;100.00;102348.63;5074962;28;20040;-66
2022/11/26 04:50:23;;;;;;;45.63;10.93;;;;;;;5.46;100.00;102346.19;5073153;28;20551;-67
2022/11/26 04:52:49;;;;;;;32.42;10.80;;;;;;;5.42;100.00;102350.75;5073409;28;20051;-67
2022/11/26 04:55:17;;;;;;;38.40;11.38;;;;;;;5.42;100.00;102355.16;5074475;28;20110;-67
2022/11/26 04:57:47;;;;;;;40.42;11.98;;;;;;;5.43;100.00;102359.50;5074675;28;20049;-67
2022/11/26 05:00:16;;;;;;;34.20;11.57;;;;;;;5.43;100.00;102359.50;5074400;28;20071;-66
2022/11/26 05:02:43;;;;;;;40.10;11.88;;;;;;;5.38;100.00;102365.00;5074109;28;20048;-67
2022/11/26 05:05:10;;;;;;;33.97;12.20;;;;;;;5.45;100.00;102371.63;5073731;28;20119;-68
2022/11/26 05:07:37;;;;;;;53.50;13.40;;;;;;;5.43;100.00;102376.13;5073721;28;20428;-66
2022/11/26 05:10:06;;;;;;;31.48;12.07;;;;;;;5.35;100.00;102373.91;5073140;28;20117;-66
2022/11/26 05:12:32;;;;;;;38.75;12.50;;;;;;;5.34;100.00;102380.09;5073686;28;20093;-67
2022/11/26 05:14:59;;;;;;;40.42;13.25;;;;;;;5.34;100.00;102380.09;5074249;28;20097;-66
2022/11/26 05:17:26;;;;;;;41.78;12.73;;;;;;;5.31;100.00;102372.38;5073745;28;20397;-67
2022/11/26 05:19:53;;;;;;;43.05;12.10;;;;;;;5.29;100.00;102374.22;5073059;28;20051;-67
2022/11/26 05:22:19;;;;;;;36.85;12.80;;;;;;;5.25;100.00;102369.19;5073184;28;20044;-67
2022/11/26 05:24:46;;;;;;;35.78;11.70;;;;;;;5.31;100.00;102371.50;5074191;28;20131;-67
2022/11/26 05:27:13;;;;;;;33.40;11.82;;;;;;;5.33;100.00;102369.63;5072982;28;20444;-67
2022/11/26 05:29:39;;;;;;;35.33;12.43;;;;;;;5.31;100.00;102375.00;5073854;28;20068;-66
2022/11/26 05:32:06;;;;;;;36.45;12.32;;;;;;;5.35;100.00;102376.53;5073514;28;20516;-67
2022/11/26 05:34:33;;;;;;;35.55;12.27;;;;;;;5.36;100.00;102382.63;5073684;28;20051;-67
2022/11/26 05:36:59;;;;;;;35.47;12.55;;;;;;;5.37;100.00;102382.56;5073267;28;20086;-67
2022/11/26 05:39:27;;;;;;;40.03;12.60;;;;;;;5.35;100.00;102380.97;5073960;28;20052;-67
2022/11/26 05:41:53;;;;;;;35.33;12.05;;;;;;;5.33;100.00;102383.66;5072056;28;20086;-67
2022/11/26 05:44:20;;;;;;;37.08;12.98;;;;;;;5.29;100.00;102386.53;5073194;28;20063;-67
2022/11/26 05:46:47;;;;;;;39.25;13.18;;;;;;;5.35;100.00;102394.97;5073942;28;20387;-67
2022/11/26 05:49:13;;;;;;;35.67;13.02;;;;;;;5.31;100.00;102395.19;5072921;28;20524;-67
2022/11/26 05:51:40;;;;;;;44.08;13.13;;;;;;;5.30;100.00;102396.13;5071576;28;20481;-67
2022/11/26 05:54:13;;;;;;;44.20;14.25;;;;;;;5.34;100.00;102395.03;5073866;28;20045;-67
2022/11/26 05:56:41;;;;;;;34.22;12.48;;;;;;;5.30;100.00;102396.97;5056041;28;20094;-66
2022/11/26 05:59:08;;;;;;;37.88;12.75;;;;;;;5.28;100.00;102390.94;5073794;28;20075;-67
2022/11/26 06:01:35;;;;;;;42.53;13.55;;;;;;;5.19;100.00;102394.91;5073029;28;20123;-67
2022/11/26 06:04:02;;;;;;;34.92;12.63;;;;;;;5.30;100.00;102388.25;5073528;28;20073;-67
2022/11/26 06:06:29;;;;;;;36.40;13.15;;;;;;;5.27;100.00;102391.84;5072224;28;20505;-67
2022/11/26 06:08:56;;;;;;;44.58;13.02;;;;;;;5.23;100.00;102394.75;5073525;28;20052;-67
2022/11/26 06:11:23;;;;;;;39.70;12.90;;;;;;;5.21;100.00;102394.81;5073202;28;20401;-67
2022/11/26 06:13:49;;;;;;;35.30;12.60;;;;;;;5.12;100.00;102396.13;5073476;28;20041;-66
2022/11/26 06:16:16;;;;;;;38.58;12.02;;;;;;;5.11;100.00;102401.47;5073025;28;20135;-66
2022/11/26 06:18:43;;;;;;;41.05;12.43;;;;;;;5.19;100.00;102408.03;5073146;28;20055;-66
2022/11/26 06:21:10;;;;;;;32.13;12.05;;;;;;;5.25;100.00;102401.63;5072904;28;20040;-66
2022/11/26 06:23:36;;;;;;;39.45;13.02;;;;;;;5.19;100.00;102399.31;5072746;28;20445;-67
2022/11/26 06:26:08;;;;;;;35.17;12.65;;;;;;;5.21;100.00;102410.59;5072690;28;20044;-66
2022/11/26 06:28:35;;;;;;;;;;;;;;;5.16;100.00;102410.81;5073456;28;20064;-67
2022/11/26 06:31:02;;;;;;;39.05;11.68;;;;;;;5.17;100.00;102407.28;5072275;28;19924;-66
2022/11/26 06:33:29;;;;;;;36.85;12.48;;;;;;;5.12;100.00;102411.06;5071994;28;20406;-66
2022/11/26 06:35:59;;;;;;;34.08;12.25;;;;;;;5.10;100.00;102419.03;5072471;28;20048;-67
2022/11/26 06:38:26;;;;;;;32.75;11.55;;;;;;;5.02;100.00;102420.34;5072123;28;20055;-67
2022/11/26 06:41:06;;;;;;;30.20;11.02;;;;;;;5.03;100.00;102425.53;5072445;28;20041;-67
2022/11/26 06:43:33;;;;;;;29.40;11.38;;;;;;;4.99;100.00;102419.56;5073365;28;20049;-68
2022/11/26 06:46:02;;;;;;;31.85;11.85;;;;;;;4.99;100.00;102424.00;5071714;28;20052;-67
2022/11/26 06:48:29;;;;;;;38.35;12.20;;;;;;;4.94;100.00;102426.00;5072987;28;20064;-67
2022/11/26 06:50:56;;;;;;;30.83;11.70;;;;;;;4.93;100.00;102419.91;5074520;28;20086;-67
2022/11/26 06:53:23;;;;;;;34.35;11.13;;;;;;;4.93;100.00;102430.41;5072822;28;20090;-67
2022/11/26 06:55:49;;;;;;;32.72;12.00;;;;;;;4.94;100.00;102423.38;5071922;28;20053;-67
2022/11/26 06:58:17;;;;;;;31.65;11.60;;;;;;;4.98;100.00;102430.16;5072949;28;20047;-67
2022/11/26 07:00:44;;;;;;;34.55;11.15;;;;;;;4.88;100.00;102432.41;5073025;28;20044;-67
2022/11/26 07:03:10;;;;;;;30.52;10.90;;;;;;;4.94;100.00;102426.84;5072892;28;20040;-67
2022/11/26 07:05:37;;;;;;;33.95;11.10;;;;;;;4.93;100.00;102429.53;5071466;28;20459;-67
2022/11/26 07:08:04;;;;;;;39.17;11.52;;;;;;;4.87;100.00;102435.13;5061113;28;20068;-67
2022/11/26 07:10:30;;;;;;;38.63;11.85;;;;;;;4.86;100.00;102442.16;5061639;28;20048;-66
2022/11/26 07:12:57;;;;;;;39.05;11.73;;;;;;;4.91;100.00;102453.31;5070153;28;20045;-67
2022/11/26 07:15:24;;;;;;;35.13;11.02;;;;;;;4.79;100.00;102464.41;5072060;28;20048;-67
2022/11/26 07:17:51;;;;;;;34.20;11.40;;;;;;;4.78;100.00;102457.44;5074192;28;20051;-67
2022/11/26 07:20:17;;;;;;;32.80;11.13;;;;;;;4.87;100.00;102456.16;5076258;28;20509;-67
2022/11/26 07:22:44;;;;;;;31.02;10.65;;;;;;;4.83;100.00;102475.66;5065414;28;20071;-67
2022/11/26 07:25:11;;;;;;;30.13;11.90;;;;;;;4.87;100.00;102480.66;5075457;28;20044;-67
2022/11/26 07:27:38;;;;;;;29.63;11.57;;;;;;;4.86;100.00;102480.72;5075606;28;20052;-68
2022/11/26 07:30:06;;;;;;;27.42;10.18;;;;;;;4.90;100.00;102488.41;5074398;28;20351;-67
2022/11/26 07:32:32;;;;;;;30.08;11.43;;;;;;;5.03;100.00;102493.09;5075557;28;20043;-67
2022/11/26 07:35:03;;;;;;;31.75;10.63;;;;;;;4.98;100.00;102498.56;5076233;28;20052;-67
2022/11/26 07:37:32;;;;;;;33.85;11.60;;;;;;;5.09;100.00;102490.13;5057997;28;20045;-67
2022/11/26 07:39:58;;;;;;;30.70;10.05;;;;;;;4.97;100.00;102491.59;5076199;28;20045;-68
2022/11/26 07:42:29;;;;;;;33.10;10.95;;;;;;;5.02;100.00;102491.38;5074509;28;20033;-68
2022/11/26 07:44:55;;;;;;;28.42;10.68;;;;;;;5.12;100.00;102480.31;5074765;28;20063;-68
2022/11/26 07:47:22;;;;;;;28.80;10.90;;;;;;;5.15;100.00;102481.97;5065320;28;20074;-66
2022/11/26 07:49:49;;;;;;;39.30;10.65;;;;;;;5.20;100.00;102490.44;5040956;28;20048;-66
2022/11/26 07:52:16;;;;;;;31.05;11.02;;;;;;;5.14;100.00;102483.72;5071746;28;20041;-66
2022/11/26 07:54:42;;;;;;;30.63;10.75;;;;;;;5.20;100.00;102482.56;5075743;28;20115;-66
2022/11/26 07:57:09;;;;;;;29.45;10.70;;;;;;;5.22;100.00;102491.25;5075824;28;20109;-66
2022/11/26 07:59:36;;;;;;;34.85;11.20;;;;;;;5.21;100.00;102486.91;5076030;28;20044;-66
2022/11/26 08:02:03;;;;;;;33.58;11.85;;;;;;;5.26;100.00;102491.97;5075725;28;20044;-68
2022/11/26 08:04:29;;;;;;;35.88;12.70;;;;;;;5.28;100.00;102480.41;5075365;28;20516;-66
2022/11/26 08:06:56;;;;;;;29.05;10.52;;;;;;;5.18;100.00;102487.94;5074824;28;20059;-67
2022/11/26 08:09:23;;;;;;;24.98;10.70;;;;;;;5.36;100.00;102483.50;5075707;28;20079;-67
2022/11/26 08:11:49;;;;;;;33.60;11.68;;;;;;;5.40;100.00;102486.81;5074810;28;20982;-67
2022/11/26 08:14:16;;;;;;;36.58;10.23;;;;;;;5.38;100.00;102483.41;5074915;28;20051;-67
2022/11/26 08:16:43;;;;;;;35.70;10.73;;;;;;;5.28;100.00;102488.31;5075530;28;20102;-66
2022/11/26 08:19:12;;;;;;;29.48;10.93;;;;;;;5.42;100.00;102492.00;5074116;28;20110;-66
2022/11/26 08:21:39;;;;;;;29.75;11.50;;;;;;;5.37;100.00;102490.47;5075405;28;20044;-67
2022/11/26 08:24:11;;;;;;;29.02;11.25;;;;;;;5.35;100.00;102492.34;5074428;28;20375;-67
2022/11/26 08:26:38;;;;;;;25.02;11.10;;;;;;;5.34;100.00;102488.00;5075509;28;20106;-68
2022/11/26 08:29:09;;;;;;;34.25;10.95;;;;;;;5.46;100.00;102493.59;5073799;28;20044;-67
2022/11/26 08:31:39;;;;;;;33.38;11.05;;;;;;;5.45;99.99;102497.13;5074847;28;20102;-67
2022/11/26 08:34:13;;;;;;;28.20;10.35;;;;;;;5.48;100.00;102500.47;5074949;28;20091;-67
2022/11/26 08:36:40;;;;;;;37.72;11.68;;;;;;;5.48;100.00;102497.00;5074689;28;20132;-67
2022/11/26 08:39:06;;;;;;;32.30;10.43;;;;;;;5.58;99.87;102500.84;5074604;28;20383;-67
2022/11/26 08:41:33;;;;;;;31.13;11.57;;;;;;;5.54;100.00;102501.94;5074089;28;20360;-67
2022/11/26 08:44:00;;;;;;;32.78;10.82;;;;;;;5.64;99.79;102502.28;5075068;28;20094;-67
2022/11/26 08:46:31;;;;;;;25.98;11.63;;;;;;;5.70;99.05;102504.63;5060044;28;20058;-67
2022/11/26 08:48:58;;;;;;;31.40;10.25;;;;;;;5.72;99.35;102513.31;5075494;28;20037;-67
2022/11/26 08:51:24;;;;;;;29.85;10.85;;;;;;;5.74;99.70;102507.00;5053297;28;20040;-67
2022/11/26 08:53:51;;;;;;;32.40;10.93;;;;;;;5.76;99.99;102510.41;5073043;28;20131;-67
2022/11/26 08:56:18;;;;;;;29.10;11.25;;;;;;;5.95;99.12;102509.47;5067146;28;20408;-67
2022/11/26 08:58:47;;;;;;;35.80;11.70;;;;;;;5.97;99.64;102515.53;5073828;28;20044;-67
2022/11/26 09:01:18;;;;;;;34.28;12.15;;;;;;;5.92;99.31;102520.16;5074309;28;20493;-67
2022/11/26 09:03:50;;;;;;;31.73;10.70;;;;;;;6.03;98.77;102517.84;5075689;28;20047;-66
2022/11/26 09:06:18;;;;;;;33.30;11.05;;;;;;;6.26;97.75;102521.06;5073773;28;20230;-67
2022/11/26 09:09:17;;;;;;;30.67;10.30;;;;;;;6.17;97.98;102526.78;5070026;28;20053;-67
2022/11/26 09:11:35;;;;;;;31.92;10.25;;;;;;;6.12;98.71;102519.16;5072641;28;20044;-67
2022/11/26 09:14:02;;;;;;;31.13;10.75;;;;;;;6.20;98.63;102526.63;5074002;28;20047;-67
2022/11/26 09:16:30;;;;;;;34.53;10.35;;;;;;;6.19;99.02;102528.44;5055608;28;20036;-67
2022/11/26 09:18:59;;;;;;;28.80;10.50;;;;;;;6.23;98.61;102532.59;5074520;28;20449;-67
2022/11/26 09:21:26;;;;;;;33.50;11.18;;;;;;;6.37;98.54;102539.78;5073965;28;20041;-68
2022/11/26 09:23:53;;;;;;;27.30;9.90;;;;;;;6.34;98.74;102527.59;5074003;28;20094;-67
2022/11/26 09:26:20;;;;;;;29.23;10.70;;;;;;;6.47;97.89;102533.06;5070802;28;20094;-67
2022/11/26 09:28:48;;;;;;;37.97;12.15;;;;;;;6.36;97.52;102535.44;5072347;28;20610;-67
2022/11/26 09:31:15;;;;;;;36.47;11.15;;;;;;;6.45;97.54;102532.28;5086404;28;20063;-67
2022/11/26 09:33:42;;;;;;;37.30;11.45;;;;;;;6.54;97.70;102528.31;5077210;28;20444;-67
2022/11/26 09:36:12;;;;;;;35.42;11.85;;;;;;;6.78;97.33;102528.72;5069426;28;20040;-66
2022/11/26 09:38:39;;;;;;;25.70;10.02;;;;;;;6.78;97.43;102539.28;5077685;28;20044;-66
2022/11/26 09:41:45;;;;;;;26.90;10.88;;;;;;;7.05;96.85;102541.31;5074736;28;20051;-66
2022/11/26 09:44:27;;;;;;;23.80;9.20;;;;;;;7.05;96.95;102536.88;5092079;28;20374;-66
2022/11/26 09:47:15;;;;;;;24.42;9.82;;;;;;;7.17;95.42;102547.66;5089358;28;20486;-66
2022/11/26 09:53:24;;;;;;;29.98;10.40;;;;;;;7.35;94.18;102535.19;5076277;27;20402;-66
2022/11/26 09:55:54;;;;;;;28.52;10.50;;;;;;;7.53;93.63;102534.16;5089668;28;20072;-66
2022/11/26 09:58:28;;;;;;;34.90;10.55;;;;;;;7.57;93.41;102532.19;5089231;28;20128;-66
2022/11/26 10:00:58;;;;;;;27.42;9.82;;;;;;;7.51;92.51;102530.72;5091900;28;20052;-66
2022/11/26 10:03:35;;;;;;;28.27;10.07;;;;;;;7.75;92.56;102536.38;5070022;28;20127;-66
2022/11/26 10:06:28;;;;;;;38.42;9.85;;;;;;;7.93;91.83;102538.81;5089300;28;20397;-66
2022/11/26 10:09:34;;;;;;;34.83;9.07;;;;;;;7.75;91.11;102539.00;5075222;28;20048;-65
2022/11/26 10:12:31;;;;;;;32.20;9.32;;;;;;;7.94;91.23;102551.94;5090887;28;20052;-65
2022/11/26 10:15:16;;;;;;;30.25;9.73;;;;;;;8.02;91.44;102535.63;5071673;28;20597;-66
2022/11/26 10:17:59;;;;;;;27.20;9.93;;;;;;;8.04;91.34;102536.38;5086308;28;20048;-66
2022/11/26 10:20:54;;;;;;;31.40;10.18;;;;;;;8.16;89.76;102534.78;5088445;28;20480;-66
2022/11/26 10:23:44;;;;;;;28.58;10.25;;;;;;;8.11;89.73;102537.69;5095784;28;20123;-66
2022/11/26 10:26:27;;;;;;;26.52;10.18;;;;;;;8.36;89.33;102538.84;5089046;28;20041;-66
2022/11/26 10:29:34;;;;;;;30.85;10.68;;;;;;;8.56;88.70;102545.56;5088543;28;20067;-66
2022/11/26 10:32:24;;;;;;;30.27;9.68;;;;;;;8.58;87.55;102549.78;5087032;28;20409;-66
2022/11/26 10:34:54;;;;;;;31.08;9.82;;;;;;;8.65;86.77;102544.97;5086795;28;20565;-66
2022/11/26 10:37:23;;;;;;;32.03;10.40;;;;;;;8.61;86.90;102540.84;5088104;28;20133;-66
2022/11/26 10:40:05;;;;;;;30.48;9.95;;;;;;;8.50;86.95;102538.03;5090505;28;20385;-66
2022/11/26 10:42:42;;;;;;;22.42;9.43;;;;;;;8.73;86.93;102533.91;5074347;28;20123;-67
2022/11/26 10:45:21;;;;;;;27.50;9.82;;;;;;;8.89;85.98;102536.41;5089192;28;20098;-66
2022/11/26 10:47:48;;;;;;;26.05;9.70;;;;;;;9.03;85.59;102531.91;5088264;28;20051;-66
2022/11/26 10:50:22;;;;;;;28.77;9.32;;;;;;;9.05;84.95;102539.75;5089698;28;20379;-67
2022/11/26 10:53:20;;;;;;;23.30;9.77;;;;;;;9.05;84.50;102536.28;5070886;28;20562;-67
2022/11/26 10:55:47;;;;;;;30.00;9.80;;;;;;;9.16;84.52;102547.84;5088945;28;20048;-64
2022/11/26 10:58:18;;;;;;;22.25;9.73;;;;;;;9.26;84.08;102534.00;5089836;28;20093;-67
2022/11/26 11:00:55;;;;;;;26.10;9.45;;;;;;;8.99;83.90;102535.72;5093122;28;20458;-65
2022/11/26 11:03:25;;;;;;;24.02;9.02;;;;;;;9.00;84.71;102526.84;5061483;28;20045;-65
2022/11/26 11:06:25;;;;;;;25.70;9.38;;;;;;;8.91;85.06;102523.94;5073908;28;20068;-65
2022/11/26 11:08:53;;;;;;;28.00;9.90;;;;;;;8.83;84.99;102529.72;5053504;28;20402;-65
2022/11/26 11:11:25;;;;;;;25.70;8.95;;;;;;;8.92;85.71;102525.63;5053569;28;20250;-66
2022/11/26 11:13:52;;;;;;;33.65;9.88;;;;;;;8.95;85.71;102525.41;5075318;28;20057;-66
2022/11/26 11:16:30;;;;;;;24.98;9.55;;;;;;;9.00;85.18;102523.31;5075674;28;20591;-65
2022/11/26 11:19:00;;;;;;;26.58;9.02;;;;;;;9.22;84.83;102518.31;5071591;28;20040;-66
2022/11/26 11:21:33;;;;;;;27.63;9.52;;;;;;;9.31;84.62;102513.34;5073541;28;20058;-66
2022/11/26 11:24:12;;;;;;;30.05;9.75;;;;;;;9.29;84.80;102521.41;5059307;28;20049;-65
2022/11/26 11:26:45;;;;;;;33.85;10.18;;;;;;;9.33;83.96;102522.03;5064203;28;20513;-65
2022/11/26 11:32:25;;;;;;;29.30;9.88;;;;;;;9.30;84.60;102527.56;5108882;27;20887;-65
2022/11/26 11:34:52;;;;;;;27.60;9.38;;;;;;;9.36;84.51;102519.19;5112119;28;20051;-66
2022/11/26 11:37:20;;;;;;;30.58;9.73;;;;;;;9.56;83.25;102523.16;5105643;28;20051;-66
2022/11/26 11:40:06;;;;;;;30.95;9.95;;;;;;;9.53;83.47;102513.63;5118749;28;20050;-66